Time;durP1;ratioP1;P1;durP2;ratioP2;P2;SDS_P1;SDS_P2;PMS_P1;PMS_P2;Temp;Humidity;BMP_temperature;BMP_pressure;BME280_temperature;BME280_humidity;BME280_pressure;Samples;Min_cycle;Max_cycle;Signal;HPM_P1;HPM_P2
2022/05/15 00:00:48;;;;;;;30.70;27.48;;;;;;;11.91;100.00;99294.78;2042407;29;20648;-70
2022/05/15 00:01:50;;;;;;;31.50;27.98;;;;;;;11.95;100.00;99298.41;2042005;29;20226;-70
2022/05/15 00:02:53;;;;;;;31.50;28.08;;;;;;;12.01;100.00;99294.56;2042257;29;20650;-71
2022/05/15 00:03:55;;;;;;;30.88;27.65;;;;;;;12.08;100.00;99294.94;2042364;29;20195;-71
2022/05/15 00:04:57;;;;;;;33.78;28.45;;;;;;;12.05;100.00;99295.53;2042437;29;20202;-70
2022/05/15 00:06:00;;;;;;;31.65;28.38;;;;;;;11.99;100.00;99294.88;2041647;29;20230;-71
2022/05/15 00:07:02;;;;;;;33.60;28.15;;;;;;;11.98;100.00;99297.81;2042426;29;20186;-70
2022/05/15 00:08:03;;;;;;;30.20;27.30;;;;;;;11.92;100.00;99299.03;2033681;29;20215;-70
2022/05/15 00:09:05;;;;;;;37.15;28.40;;;;;;;11.89;100.00;99297.72;2025952;29;20200;-71
2022/05/15 00:10:07;;;;;;;32.85;28.40;;;;;;;11.87;100.00;99300.69;2033826;29;20204;-71
2022/05/15 00:11:13;;;;;;;32.92;28.65;;;;;;;11.88;100.00;99296.13;2041729;29;20191;-70
2022/05/15 00:12:16;;;;;;;31.92;28.52;;;;;;;11.86;100.00;99304.47;2042457;29;20266;-71
2022/05/15 00:13:17;;;;;;;34.05;29.13;;;;;;;11.83;100.00;99301.59;2041550;29;20210;-70
2022/05/15 00:14:19;;;;;;;34.22;29.33;;;;;;;11.77;100.00;99298.19;2041703;29;20195;-71
2022/05/15 00:15:20;;;;;;;31.23;28.02;;;;;;;11.75;100.00;99302.28;2042170;29;20199;-71
2022/05/15 00:16:24;;;;;;;32.20;28.67;;;;;;;11.69;100.00;99303.44;2042553;29;20222;-71
2022/05/15 00:17:25;;;;;;;31.80;28.20;;;;;;;11.66;100.00;99307.53;2042131;29;20219;-71
2022/05/15 00:18:28;;;;;;;30.87;27.97;;;;;;;11.60;100.00;99300.69;2042319;29;20195;-70
2022/05/15 00:19:29;;;;;;;33.03;28.42;;;;;;;11.61;100.00;99296.91;2033297;29;20203;-71
2022/05/15 00:20:32;;;;;;;32.27;28.47;;;;;;;11.60;100.00;99298.78;2033858;29;20202;-70
2022/05/15 00:21:35;;;;;;;30.73;27.73;;;;;;;11.56;100.00;99299.69;2041823;29;20227;-70
2022/05/15 00:22:36;;;;;;;34.22;28.00;;;;;;;11.56;100.00;99297.03;2041468;29;20242;-71
2022/05/15 00:23:38;;;;;;;30.97;27.90;;;;;;;11.53;100.00;99303.72;2049043;29;20202;-71
2022/05/15 00:24:42;;;;;;;33.22;29.20;;;;;;;11.51;100.00;99297.09;2049628;29;20201;-71
2022/05/15 00:25:47;;;;;;;29.60;26.67;;;;;;;11.50;100.00;99301.66;2041952;29;20206;-71
2022/05/15 00:26:48;;;;;;;31.83;28.77;;;;;;;11.49;100.00;99293.94;2042296;29;20244;-71
2022/05/15 00:27:49;;;;;;;30.23;27.20;;;;;;;11.48;100.00;99308.41;2033510;29;20247;-71
2022/05/15 00:28:50;;;;;;;30.13;27.33;;;;;;;11.45;100.00;99300.94;2033726;29;20199;-71
2022/05/15 00:29:55;;;;;;;31.43;28.40;;;;;;;11.45;100.00;99308.97;2033583;29;20716;-71
2022/05/15 00:30:56;;;;;;;32.80;29.08;;;;;;;11.42;100.00;99301.56;2034044;29;20195;-71
2022/05/15 00:32:01;;;;;;;31.63;28.45;;;;;;;11.39;100.00;99296.81;2042142;29;20271;-71
2022/05/15 00:33:03;;;;;;;32.78;29.27;;;;;;;11.38;100.00;99303.22;2041899;29;20203;-71
2022/05/15 00:34:05;;;;;;;31.45;28.40;;;;;;;11.37;100.00;99293.63;2042283;29;20619;-71
2022/05/15 00:35:07;;;;;;;31.58;28.40;;;;;;;11.33;100.00;99304.13;2042075;29;20195;-71
2022/05/15 00:36:08;;;;;;;31.50;28.35;;;;;;;11.29;100.00;99303.09;2033059;29;20203;-71
2022/05/15 00:37:10;;;;;;;32.60;29.38;;;;;;;11.29;100.00;99293.25;2025522;29;20207;-71
2022/05/15 00:38:14;;;;;;;32.22;28.77;;;;;;;11.26;100.00;99296.47;2032776;29;20196;-71
2022/05/15 00:39:17;;;;;;;32.67;29.58;;;;;;;11.26;100.00;99301.81;2025658;29;20208;-71
2022/05/15 00:40:20;;;;;;;32.88;29.48;;;;;;;11.29;100.00;99305.78;2032672;29;20250;-71
2022/05/15 00:41:22;;;;;;;33.17;29.90;;;;;;;11.31;100.00;99314.31;2025906;29;20200;-71
2022/05/15 00:42:23;;;;;;;32.03;28.75;;;;;;;11.31;100.00;99306.28;2033595;29;20218;-71
2022/05/15 00:43:44;;;;;;;31.60;28.50;;;;;;;11.34;100.00;99305.69;2042101;29;20278;-71
2022/05/15 00:44:45;;;;;;;31.17;28.00;;;;;;;11.35;100.00;99301.16;2041991;29;20178;-71
2022/05/15 00:45:47;;;;;;;30.70;27.83;;;;;;;11.39;100.00;99300.28;2041978;29;20670;-71
2022/05/15 00:46:50;;;;;;;31.65;28.48;;;;;;;11.43;100.00;99301.25;2041990;29;20287;-72
2022/05/15 00:47:53;;;;;;;31.88;28.73;;;;;;;11.46;100.00;99302.53;2041883;29;20266;-72
2022/05/15 00:48:55;;;;;;;33.47;30.25;;;;;;;11.47;100.00;99299.59;2041347;29;20552;-71
2022/05/15 00:49:57;;;;;;;33.50;30.05;;;;;;;11.51;100.00;99303.25;2033769;29;20200;-71
2022/05/15 00:51:01;;;;;;;33.28;29.52;;;;;;;11.53;100.00;99305.63;2040888;29;20206;-72
2022/05/15 00:52:06;;;;;;;35.83;29.65;;;;;;;11.55;100.00;99303.44;2049250;29;20626;-71
2022/05/15 00:53:09;;;;;;;32.20;28.75;;;;;;;11.55;100.00;99306.94;2041004;29;20198;-71
2022/05/15 00:54:17;;;;;;;33.70;29.20;;;;;;;11.57;100.00;99302.06;2041507;29;20195;-71
2022/05/15 00:55:21;;;;;;;32.40;29.30;;;;;;;11.59;100.00;99302.56;2033656;29;20278;-71
2022/05/15 00:56:29;;;;;;;32.53;29.33;;;;;;;11.62;100.00;99309.19;2034402;29;20215;-71
2022/05/15 00:57:33;;;;;;;33.88;30.00;;;;;;;11.68;100.00;99304.53;2041226;29;20194;-71
2022/05/15 00:58:42;;;;;;;33.95;29.65;;;;;;;11.68;100.00;99308.00;2049185;29;20669;-71
2022/05/15 00:59:47;;;;;;;32.90;29.63;;;;;;;11.68;100.00;99297.31;2040463;29;20202;-71
2022/05/15 01:00:49;;;;;;;32.53;29.58;;;;;;;11.75;100.00;99307.63;2034048;29;20192;-71
2022/05/15 01:01:51;;;;;;;31.38;28.27;;;;;;;11.72;100.00;99308.97;2033465;29;20206;-71
2022/05/15 01:02:57;;;;;;;31.60;28.50;;;;;;;11.73;100.00;99307.13;2033666;29;20199;-72
2022/05/15 01:04:00;;;;;;;32.05;28.75;;;;;;;11.71;100.00;99312.75;2041269;29;20195;-72
2022/05/15 01:05:03;;;;;;;30.33;27.13;;;;;;;11.70;100.00;99305.81;2041243;29;20369;-71
2022/05/15 01:06:05;;;;;;;30.50;27.20;;;;;;;11.71;100.00;99312.75;2040980;29;20655;-71
2022/05/15 01:07:10;;;;;;;31.23;28.30;;;;;;;11.69;100.00;99306.13;2041246;29;20206;-71
2022/05/15 01:08:11;;;;;;;31.40;28.20;;;;;;;11.72;100.00;99306.31;2033360;29;20215;-71
2022/05/15 01:09:16;;;;;;;31.33;27.90;;;;;;;11.71;100.00;99311.97;2033400;29;20195;-72
2022/05/15 01:10:18;;;;;;;29.67;26.92;;;;;;;11.69;100.00;99303.44;2033430;29;20239;-71
2022/05/15 01:11:20;;;;;;;37.55;28.63;;;;;;;11.71;100.00;99302.06;2033432;29;20769;-71
2022/05/15 01:12:21;;;;;;;36.33;28.63;;;;;;;11.71;100.00;99304.72;2025660;29;20203;-71
2022/05/15 01:13:24;;;;;;;32.25;28.95;;;;;;;11.74;100.00;99306.81;2033680;29;20251;-71
2022/05/15 01:14:26;;;;;;;34.40;29.77;;;;;;;11.73;100.00;99312.47;2034988;29;20202;-72
2022/05/15 01:15:28;;;;;;;35.05;31.13;;;;;;;11.73;100.00;99307.91;2027234;29;20645;-71
2022/05/15 01:16:34;;;;;;;35.33;30.17;;;;;;;11.77;100.00;99314.25;2035580;29;20187;-71
2022/05/15 01:17:34;;;;;;;34.28;30.75;;;;;;;11.76;100.00;99304.66;2042825;29;20203;-71
2022/05/15 01:18:39;;;;;;;34.03;30.55;;;;;;;11.77;100.00;99308.91;2034958;29;20251;-71
2022/05/15 01:19:41;;;;;;;34.20;30.17;;;;;;;11.76;100.00;99303.84;2035182;29;20195;-72
2022/05/15 01:20:43;;;;;;;32.05;28.75;;;;;;;11.73;100.00;99309.81;2034963;29;20212;-71
2022/05/15 01:21:53;;;;;;;33.28;29.58;;;;;;;11.77;100.00;99316.91;2026972;29;20683;-71
2022/05/15 01:22:56;;;;;;;31.75;28.52;;;;;;;11.76;100.00;99310.00;2028349;29;20192;-71
2022/05/15 01:23:59;;;;;;;33.45;29.70;;;;;;;11.74;100.00;99303.38;2027175;29;20227;-71
2022/05/15 01:25:01;;;;;;;33.38;29.52;;;;;;;11.72;100.00;99308.97;2034948;29;20195;-72
2022/05/15 01:26:02;;;;;;;34.78;30.23;;;;;;;11.74;100.00;99317.53;2034925;29;20690;-71
2022/05/15 01:27:12;;;;;;;34.72;28.40;;;;;;;11.71;100.00;99306.59;2042913;29;20738;-71
2022/05/15 01:28:17;;;;;;;31.65;28.45;;;;;;;11.75;100.00;99315.63;2042743;29;20221;-71
2022/05/15 01:29:20;;;;;;;33.58;30.33;;;;;;;11.74;100.00;99316.72;2034880;29;20314;-71
2022/05/15 01:30:21;;;;;;;34.03;30.23;;;;;;;11.72;100.00;99308.97;2034806;29;20204;-72
2022/05/15 01:31:23;;;;;;;35.80;31.08;;;;;;;11.74;100.00;99309.50;2042716;29;20194;-71
2022/05/15 01:32:24;;;;;;;34.58;31.05;;;;;;;11.74;100.00;99312.19;2042862;29;20220;-71
2022/05/15 01:33:26;;;;;;;34.38;30.15;;;;;;;11.72;100.00;99308.97;2042598;29;20241;-71
2022/05/15 01:34:27;;;;;;;35.35;30.75;;;;;;;11.72;100.00;99311.66;2042800;29;20241;-71
2022/05/15 01:35:31;;;;;;;34.83;31.02;;;;;;;11.71;100.00;99306.59;2035079;29;20199;-71
2022/05/15 01:36:36;;;;;;;33.47;29.98;;;;;;;11.78;100.00;99315.03;2027199;29;20244;-71
2022/05/15 01:37:39;;;;;;;33.78;30.33;;;;;;;11.74;100.00;99317.53;2035312;29;20266;-71
2022/05/15 01:38:40;;;;;;;33.72;30.40;;;;;;;11.76;100.00;99312.66;2042643;29;20234;-71
2022/05/15 01:39:43;;;;;;;34.83;30.60;;;;;;;11.77;100.00;99313.44;2049990;29;20233;-72
2022/05/15 01:40:46;;;;;;;34.38;30.58;;;;;;;11.76;100.00;99312.66;2042547;29;20676;-72
2022/05/15 01:41:49;;;;;;;35.08;29.52;;;;;;;11.78;100.00;99320.38;2033950;29;20206;-71
2022/05/15 01:42:53;;;;;;;33.70;29.73;;;;;;;11.74;100.00;99317.53;2035208;29;20686;-71
2022/05/15 01:43:55;;;;;;;33.08;29.77;;;;;;;11.74;100.00;99314.84;2034921;29;20200;-71
2022/05/15 01:44:59;;;;;;;34.75;30.90;;;;;;;11.75;100.00;99307.63;2035284;29;20331;-71
2022/05/15 01:46:01;;;;;;;36.63;32.93;;;;;;;11.73;100.00;99310.59;2050558;29;20262;-72
2022/05/15 01:47:02;;;;;;;35.85;32.00;;;;;;;11.71;100.00;99315.41;2050516;29;20298;-71
2022/05/15 01:48:05;;;;;;;36.05;32.15;;;;;;;11.72;100.00;99310.88;2034708;29;20773;-71
2022/05/15 01:49:07;;;;;;;36.85;31.40;;;;;;;11.71;100.00;99307.41;2027260;29;20204;-71
2022/05/15 01:50:10;;;;;;;37.05;32.13;;;;;;;11.70;100.00;99305.81;2042721;29;20261;-72
2022/05/15 01:51:11;;;;;;;36.85;33.15;;;;;;;11.68;100.00;99307.22;2042013;29;20298;-72
2022/05/15 01:52:13;;;;;;;37.30;32.87;;;;;;;11.69;100.00;99306.91;2034134;29;20207;-72
2022/05/15 01:53:16;;;;;;;36.65;32.25;;;;;;;11.72;100.00;99319.66;2042657;29;20215;-71
2022/05/15 01:54:19;;;;;;;38.72;34.63;;;;;;;11.72;100.00;99314.31;2042787;29;20199;-71
2022/05/15 01:55:21;;;;;;;37.70;33.63;;;;;;;11.70;100.00;99305.03;2042146;29;20199;-71
2022/05/15 01:56:23;;;;;;;38.13;33.97;;;;;;;11.72;100.00;99313.53;2034699;29;20219;-71
2022/05/15 01:57:25;;;;;;;36.90;32.97;;;;;;;11.76;100.00;99311.88;2034649;29;20593;-72
2022/05/15 01:58:27;;;;;;;36.93;33.03;;;;;;;11.78;100.00;99313.16;2034894;29;20214;-72
2022/05/15 01:59:28;;;;;;;44.75;33.17;;;;;;;11.80;100.00;99305.66;2034625;29;20211;-72
2022/05/15 02:00:30;;;;;;;37.60;33.67;;;;;;;11.80;100.00;99307.53;2034633;29;20227;-70
2022/05/15 02:01:30;;;;;;;36.95;31.80;;;;;;;11.78;100.00;99312.34;2034583;29;20204;-71
2022/05/15 02:02:34;;;;;;;37.33;32.20;;;;;;;11.76;100.00;99310.00;2034870;29;20648;-70
2022/05/15 02:03:36;;;;;;;37.10;33.15;;;;;;;11.73;100.00;99310.59;2042579;29;20195;-71
2022/05/15 02:04:38;;;;;;;37.17;32.75;;;;;;;11.72;100.00;99319.66;2034656;29;20235;-71
2022/05/15 02:05:39;;;;;;;34.83;31.13;;;;;;;11.71;100.00;99307.41;2042594;29;20298;-71
2022/05/15 02:06:42;;;;;;;33.60;29.97;;;;;;;11.71;100.00;99312.75;2050115;29;20238;-71
2022/05/15 02:07:44;;;;;;;35.60;31.90;;;;;;;11.68;100.00;99312.56;2034600;29;20200;-71
2022/05/15 02:08:48;;;;;;;38.67;32.25;;;;;;;11.68;100.00;99310.69;2026049;29;20272;-71
2022/05/15 02:09:50;;;;;;;38.10;32.38;;;;;;;11.69;100.00;99314.94;2042702;29;20203;-70
2022/05/15 02:10:52;;;;;;;35.63;31.77;;;;;;;11.69;100.00;99314.94;2042223;29;20199;-70
2022/05/15 02:11:53;;;;;;;36.65;31.10;;;;;;;11.69;100.00;99314.13;2042548;29;20195;-70
2022/05/15 02:12:55;;;;;;;35.03;31.33;;;;;;;11.66;100.00;99310.19;2050528;29;20227;-72
2022/05/15 02:13:57;;;;;;;35.75;32.15;;;;;;;11.68;100.00;99313.34;2043210;29;20673;-71
2022/05/15 02:14:58;;;;;;;34.83;31.30;;;;;;;11.68;100.00;99313.34;2043109;29;20571;-70
2022/05/15 02:15:59;;;;;;;40.80;33.15;;;;;;;11.68;100.00;99313.34;2034601;29;20195;-71
2022/05/15 02:17:01;;;;;;;36.38;32.10;;;;;;;11.68;100.00;99308.00;2034491;29;20239;-73
2022/05/15 02:18:04;;;;;;;35.80;31.50;;;;;;;11.68;100.00;99313.34;2034504;29;20553;-72
2022/05/15 02:19:08;;;;;;;35.70;31.30;;;;;;;11.70;100.00;99316.50;2034502;29;20203;-72
2022/05/15 02:20:12;;;;;;;37.53;32.70;;;;;;;11.76;100.00;99312.66;2026989;29;20211;-72
2022/05/15 02:21:15;;;;;;;34.90;31.38;;;;;;;11.75;100.00;99319.09;2025901;29;20236;-72
2022/05/15 02:22:15;;;;;;;37.50;33.28;;;;;;;11.78;100.00;99309.69;2042515;29;20199;-72
2022/05/15 02:23:18;;;;;;;36.13;32.17;;;;;;;11.75;100.00;99321.78;2042395;29;20540;-72
2022/05/15 02:24:21;;;;;;;34.50;30.67;;;;;;;11.74;100.00;99314.84;2026779;29;20204;-72
2022/05/15 02:25:23;;;;;;;40.15;33.00;;;;;;;11.75;100.00;99313.75;2026819;29;20252;-72
2022/05/15 02:26:24;;;;;;;37.80;31.35;;;;;;;11.75;100.00;99313.75;2026817;29;20540;-71
2022/05/15 02:27:26;;;;;;;42.17;32.50;;;;;;;11.76;100.00;99314.53;2033882;29;20275;-72
2022/05/15 02:28:27;;;;;;;35.67;31.85;;;;;;;11.77;100.00;99321.47;2034387;29;21026;-71
2022/05/15 02:29:29;;;;;;;38.27;32.63;;;;;;;11.77;100.00;99321.47;2026596;29;20601;-72
2022/05/15 02:30:32;;;;;;;35.40;31.77;;;;;;;11.77;100.00;99316.91;2026002;29;20209;-71
2022/05/15 02:31:34;;;;;;;39.55;31.50;;;;;;;11.80;100.00;99323.56;2026951;29;20210;-72
2022/05/15 02:32:35;;;;;;;40.05;32.35;;;;;;;11.80;100.00;99315.56;2034605;29;20195;-72
2022/05/15 02:33:37;;;;;;;37.65;32.92;;;;;;;11.80;100.00;99327.03;2042246;29;20251;-71
2022/05/15 02:34:39;;;;;;;40.88;32.88;;;;;;;11.81;100.00;99319.81;2042291;29;20702;-71
2022/05/15 02:35:41;;;;;;;37.75;31.80;;;;;;;11.79;100.00;99316.63;2034405;29;20219;-71
2022/05/15 02:36:42;;;;;;;44.30;32.63;;;;;;;11.80;100.00;99316.34;2026322;29;20356;-71
2022/05/15 02:37:47;;;;;;;38.80;32.90;;;;;;;11.78;100.00;99323.84;2033624;29;20260;-71
2022/05/15 02:38:47;;;;;;;41.13;31.13;;;;;;;11.81;100.00;99317.13;2026936;29;20201;-72
2022/05/15 02:39:51;;;;;;;37.33;32.97;;;;;;;11.81;100.00;99325.94;2026569;29;20197;-72
2022/05/15 02:40:57;;;;;;;40.13;32.60;;;;;;;11.85;100.00;99323.47;2034641;29;20682;-72
2022/05/15 02:42:01;;;;;;;38.33;33.10;;;;;;;11.84;100.00;99322.69;2034468;29;20220;-71
2022/05/15 02:43:03;;;;;;;40.83;33.67;;;;;;;11.84;100.00;99330.72;2034820;29;20234;-71
2022/05/15 02:44:05;;;;;;;42.63;32.80;;;;;;;11.85;100.00;99324.28;2042230;29;20199;-71
2022/05/15 02:45:09;;;;;;;36.33;32.17;;;;;;;11.85;100.00;99324.28;2034323;29;20196;-70
2022/05/15 02:46:11;;;;;;;36.65;32.45;;;;;;;11.86;100.00;99333.88;2034315;29;20713;-70
2022/05/15 02:47:12;;;;;;;37.40;32.67;;;;;;;11.87;100.00;99324.75;2034424;29;20204;-71
2022/05/15 02:51:04;;;;;;;39.03;31.98;;;;;;;11.86;100.00;99333.88;2036744;29;20198;-72
2022/05/15 02:52:06;;;;;;;38.25;32.10;;;;;;;11.85;100.00;99332.28;2026628;29;20216;-71
2022/05/15 02:53:08;;;;;;;38.25;32.50;;;;;;;11.86;100.00;99331.19;2026653;29;20260;-71
2022/05/15 02:54:09;;;;;;;35.10;31.50;;;;;;;11.85;100.00;99334.19;2034243;29;20298;-71
2022/05/15 02:55:12;;;;;;;41.20;32.60;;;;;;;11.83;100.00;99331.81;2026545;29;20245;-71
2022/05/15 02:56:15;;;;;;;36.30;32.65;;;;;;;11.82;100.00;99332.91;2026887;29;20236;-71
2022/05/15 02:57:17;;;;;;;37.90;32.00;;;;;;;11.79;100.00;99329.97;2042194;29;20195;-71
2022/05/15 02:58:18;;;;;;;35.42;31.73;;;;;;;11.79;100.00;99330.78;2034183;29;20204;-71
2022/05/15 02:59:20;;;;;;;35.53;31.80;;;;;;;11.78;100.00;99328.41;2018703;29;20231;-71
2022/05/15 03:00:25;;;;;;;38.83;32.78;;;;;;;11.77;100.00;99340.19;2026591;29;20211;-71
2022/05/15 03:01:25;;;;;;;37.97;32.65;;;;;;;11.78;100.00;99336.41;2026410;29;20252;-71
2022/05/15 03:02:28;;;;;;;39.55;33.05;;;;;;;11.81;100.00;99335.84;2018817;29;20205;-71
2022/05/15 03:03:28;;;;;;;35.38;31.75;;;;;;;11.79;100.00;99329.97;2026422;29;20212;-71
2022/05/15 03:04:33;;;;;;;37.07;33.10;;;;;;;11.80;100.00;99331.59;2042016;29;20235;-71
2022/05/15 03:05:33;;;;;;;38.40;32.53;;;;;;;11.81;100.00;99327.81;2042022;29;20249;-71
2022/05/15 03:06:35;;;;;;;35.07;31.27;;;;;;;11.81;100.00;99333.97;2028348;29;20224;-71
2022/05/15 03:07:36;;;;;;;40.70;32.20;;;;;;;11.83;100.00;99336.38;2034225;29;20200;-71
2022/05/15 03:08:43;;;;;;;36.45;32.65;;;;;;;11.85;100.00;99334.97;2042071;29;20258;-71
2022/05/15 03:09:47;;;;;;;38.55;33.28;;;;;;;11.86;100.00;99336.56;2034195;29;20262;-71
2022/05/15 03:10:50;;;;;;;37.38;33.38;;;;;;;11.85;100.00;99331.50;2033931;29;20208;-71
2022/05/15 03:11:51;;;;;;;39.95;33.03;;;;;;;11.82;100.00;99335.56;2026684;29;20192;-71
2022/05/15 03:12:53;;;;;;;42.60;32.87;;;;;;;11.80;100.00;99328.91;2026360;29;20228;-71
2022/05/15 03:13:55;;;;;;;37.22;32.65;;;;;;;11.80;100.00;99331.59;2018675;29;20208;-71
2022/05/15 03:14:56;;;;;;;40.03;33.17;;;;;;;11.79;100.00;99333.44;2018615;29;20577;-71
2022/05/15 03:15:57;;;;;;;37.33;33.22;;;;;;;11.79;100.00;99340.66;2026350;29;20200;-71
2022/05/15 03:17:02;;;;;;;40.63;32.97;;;;;;;11.77;100.00;99338.31;2034064;29;20192;-71
2022/05/15 03:18:03;;;;;;;41.08;34.42;;;;;;;11.77;100.00;99337.50;2026291;29;20309;-71
2022/05/15 03:19:05;;;;;;;36.03;32.00;;;;;;;11.77;100.00;99338.31;2026360;29;20189;-71
2022/05/15 03:20:08;;;;;;;37.88;33.70;;;;;;;11.76;100.00;99342.06;2025703;29;20577;-71
2022/05/15 03:21:10;;;;;;;42.58;33.17;;;;;;;11.76;100.00;99342.06;2028371;29;20235;-71
2022/05/15 03:22:13;;;;;;;43.53;34.50;;;;;;;11.75;100.00;99335.13;2034101;29;20569;-71
2022/05/15 03:23:17;;;;;;;44.25;34.60;;;;;;;11.74;100.00;99340.78;2034475;29;20582;-71
2022/05/15 03:24:19;;;;;;;39.58;35.17;;;;;;;11.69;100.00;99336.31;2042524;29;20199;-71
2022/05/15 03:25:21;;;;;;;40.93;34.87;;;;;;;11.69;100.00;99341.66;2034093;29;20290;-71
2022/05/15 03:26:24;;;;;;;38.22;34.08;;;;;;;11.69;100.00;99340.88;2025664;29;20832;-71
2022/05/15 03:27:25;;;;;;;42.25;34.88;;;;;;;11.66;100.00;99336.91;2026348;29;20196;-71
2022/05/15 03:28:26;;;;;;;45.38;34.92;;;;;;;11.70;100.00;99331.75;2026155;29;20203;-71
2022/05/15 03:29:34;;;;;;;43.00;34.00;;;;;;;11.69;100.00;99330.97;2034010;29;20212;-71
2022/05/15 03:30:38;;;;;;;40.75;34.88;;;;;;;11.68;100.00;99337.41;2042918;29;20176;-71
2022/05/15 03:31:41;;;;;;;41.60;34.00;;;;;;;11.68;100.00;99334.72;2042585;29;20195;-71
2022/05/15 03:32:42;;;;;;;42.13;34.53;;;;;;;11.69;100.00;99341.66;2041828;29;20199;-70
2022/05/15 03:33:46;;;;;;;45.50;35.70;;;;;;;11.71;100.00;99338.69;2041746;29;20305;-70
2022/05/15 03:34:47;;;;;;;43.58;35.30;;;;;;;11.69;100.00;99341.66;2033888;29;20207;-71
2022/05/15 03:35:49;;;;;;;41.57;35.20;;;;;;;11.68;100.00;99347.31;2026168;29;20261;-70
2022/05/15 03:36:52;;;;;;;40.15;34.95;;;;;;;11.70;100.00;99342.44;2025255;29;20227;-71
2022/05/15 03:37:54;;;;;;;44.28;35.65;;;;;;;11.71;100.00;99344.81;2026488;29;20583;-70
2022/05/15 03:38:56;;;;;;;39.90;34.70;;;;;;;11.75;100.00;99345.84;2025877;29;20256;-70
2022/05/15 03:39:57;;;;;;;38.05;34.15;;;;;;;11.78;100.00;99345.22;2033908;29;20644;-71
2022/05/15 03:40:59;;;;;;;40.30;35.17;;;;;;;11.78;100.00;99345.22;2033941;29;20223;-70
2022/05/15 03:42:01;;;;;;;42.42;34.00;;;;;;;11.80;100.00;99347.63;2034101;29;20195;-70
2022/05/15 03:43:03;;;;;;;40.75;35.25;;;;;;;11.79;100.00;99346.81;2041692;29;20195;-70
2022/05/15 03:44:05;;;;;;;41.05;34.38;;;;;;;11.83;100.00;99347.06;2041892;29;20385;-70
2022/05/15 03:45:07;;;;;;;44.97;35.10;;;;;;;11.84;100.00;99345.97;2042495;29;20215;-70
2022/05/15 03:46:09;;;;;;;40.58;34.25;;;;;;;11.83;100.00;99342.50;2033968;29;20228;-71
2022/05/15 03:47:12;;;;;;;47.03;33.95;;;;;;;11.85;100.00;99350.22;2034478;29;20192;-71
2022/05/15 03:48:13;;;;;;;40.63;33.55;;;;;;;11.86;100.00;99341.09;2041338;29;20211;-71
2022/05/15 03:49:15;;;;;;;50.57;35.23;;;;;;;11.92;100.00;99347.94;2041699;29;20219;-70
2022/05/15 03:50:18;;;;;;;47.13;35.13;;;;;;;11.92;100.00;99350.63;2041832;29;20279;-71
2022/05/15 03:51:20;;;;;;;42.90;35.35;;;;;;;11.91;100.00;99351.72;2040365;29;20226;-70
2022/05/15 03:52:21;;;;;;;42.08;34.53;;;;;;;11.95;100.00;99354.56;2034249;29;20176;-70
2022/05/15 03:53:24;;;;;;;38.63;34.50;;;;;;;11.95;100.00;99350.00;2033878;29;20195;-71
2022/05/15 03:54:26;;;;;;;38.83;34.72;;;;;;;11.95;100.00;99343.88;2025821;29;20702;-70
2022/05/15 03:55:27;;;;;;;40.92;34.67;;;;;;;11.97;100.00;99347.03;2034025;29;20686;-71
2022/05/15 03:57:56;;;;;;;40.65;34.83;;;;;;;12.05;100.00;99351.69;2033136;29;20207;-71
2022/05/15 03:58:58;;;;;;;40.97;34.95;;;;;;;12.06;100.00;99355.94;2042073;29;20175;-71
2022/05/15 03:59:59;;;;;;;42.47;34.90;;;;;;;12.07;100.00;99352.19;2042343;29;20187;-71
2022/05/15 04:01:00;;;;;;;41.00;35.35;;;;;;;12.09;100.00;99360.72;2033724;29;20199;-71
2022/05/15 04:02:05;;;;;;;45.03;35.00;;;;;;;12.08;100.00;99359.13;2026007;29;20204;-71
2022/05/15 04:03:06;;;;;;;43.65;34.75;;;;;;;12.09;100.00;99361.50;2034359;29;20428;-71
2022/05/15 04:04:09;;;;;;;43.33;34.37;;;;;;;12.07;100.00;99355.66;2033859;29;20255;-71
2022/05/15 04:05:12;;;;;;;38.70;34.55;;;;;;;12.09;100.00;99355.38;2033932;29;20192;-71
2022/05/15 04:06:16;;;;;;;44.83;35.33;;;;;;;12.10;100.00;99364.97;2041091;29;20276;-71
2022/05/15 04:07:17;;;;;;;37.55;33.67;;;;;;;12.09;100.00;99355.38;2033810;29;20742;-71
2022/05/15 04:08:19;;;;;;;49.17;35.90;;;;;;;12.10;100.00;99356.94;2026047;29;20279;-71
2022/05/15 04:09:21;;;;;;;38.63;34.42;;;;;;;12.09;100.00;99358.03;2033095;29;20266;-71
2022/05/15 04:10:24;;;;;;;40.88;35.08;;;;;;;12.11;100.00;99348.63;2033718;29;20676;-71
2022/05/15 04:11:27;;;;;;;45.30;34.55;;;;;;;12.14;100.00;99349.91;2041762;29;20321;-71
2022/05/15 04:12:30;;;;;;;39.78;34.20;;;;;;;12.17;100.00;99354.69;2040942;29;20693;-71
2022/05/15 04:13:33;;;;;;;44.63;34.35;;;;;;;12.22;100.00;99361.78;2034029;29;20200;-71
2022/05/15 04:14:35;;;;;;;46.60;35.75;;;;;;;12.22;100.00;99357.22;2033659;29;20192;-71
2022/05/15 04:15:36;;;;;;;41.03;35.45;;;;;;;12.23;100.00;99364.16;2025938;29;20295;-71
2022/05/15 04:16:38;;;;;;;40.70;34.70;;;;;;;12.24;100.00;99367.63;2041533;29;20205;-71
2022/05/15 04:17:40;;;;;;;37.20;33.30;;;;;;;12.30;100.00;99371.78;2041553;29;20203;-71
2022/05/15 04:18:43;;;;;;;46.08;35.10;;;;;;;12.33;100.00;99361.25;2025991;29;20237;-71
2022/05/15 04:19:46;;;;;;;42.65;33.65;;;;;;;12.39;100.00;99370.00;2041799;29;20293;-71
2022/05/15 04:20:47;;;;;;;39.10;34.00;;;;;;;12.41;100.00;99362.44;2041250;29;20583;-71
2022/05/15 04:21:49;;;;;;;42.97;35.83;;;;;;;12.43;100.00;99362.97;2041194;29;20227;-71
2022/05/15 04:22:50;;;;;;;45.10;35.90;;;;;;;12.46;100.00;99367.69;2049503;29;20198;-71
2022/05/15 04:23:52;;;;;;;39.37;34.83;;;;;;;12.49;100.00;99368.97;2042121;29;20697;-71
2022/05/15 04:24:53;;;;;;;38.60;33.85;;;;;;;12.52;100.00;99365.72;2041465;29;20207;-71
2022/05/15 04:25:54;;;;;;;45.53;35.72;;;;;;;12.54;100.00;99367.00;2041482;29;20289;-71
2022/05/15 04:26:56;;;;;;;42.87;35.40;;;;;;;12.60;100.00;99371.16;2041762;29;20243;-71
2022/05/15 04:27:57;;;;;;;42.20;34.97;;;;;;;12.63;100.00;99375.09;2033605;29;20459;-71
2022/05/15 04:29:00;;;;;;;47.37;35.17;;;;;;;12.68;100.00;99377.66;2025311;29;20315;-71
2022/05/15 04:30:02;;;;;;;39.53;35.33;;;;;;;12.71;100.00;99377.06;2025871;29;20244;-71
2022/05/15 04:31:03;;;;;;;43.30;35.40;;;;;;;12.80;100.00;99377.13;2033669;29;20187;-71
2022/05/15 04:32:08;;;;;;;41.75;35.58;;;;;;;12.82;100.00;99381.09;2033549;29;20199;-71
2022/05/15 04:33:14;;;;;;;48.35;36.42;;;;;;;12.81;100.00;99379.50;2033685;29;20183;-71
2022/05/15 04:34:16;;;;;;;50.28;36.05;;;;;;;12.84;100.00;99384.25;2040600;29;20206;-71
2022/05/15 04:35:18;;;;;;;42.28;34.83;;;;;;;12.86;100.00;99384.75;2041362;29;20250;-71
2022/05/15 04:36:20;;;;;;;41.42;35.70;;;;;;;12.96;100.00;99383.72;2032263;29;20279;-72
2022/05/15 04:37:20;;;;;;;40.22;34.70;;;;;;;12.98;100.00;99382.31;2025687;29;20559;-72
2022/05/15 04:38:22;;;;;;;42.53;34.97;;;;;;;13.01;100.00;99378.25;2033713;29;20238;-71
2022/05/15 04:39:25;;;;;;;42.97;35.13;;;;;;;13.05;100.00;99384.59;2033182;29;20686;-71
2022/05/15 04:40:29;;;;;;;39.05;34.78;;;;;;;13.09;100.00;99382.09;2025981;29;20200;-72
2022/05/15 04:41:30;;;;;;;39.70;35.25;;;;;;;13.12;100.00;99376.09;2025972;29;20252;-71
2022/05/15 04:42:33;;;;;;;42.03;34.77;;;;;;;13.13;100.00;99373.16;2025261;29;20221;-72
2022/05/15 04:43:34;;;;;;;44.13;33.78;;;;;;;13.17;100.00;99374.09;2025735;29;20204;-72
2022/05/15 04:44:36;;;;;;;39.85;33.85;;;;;;;13.21;100.00;99375.13;2033749;29;20587;-72
2022/05/15 04:45:38;;;;;;;38.92;34.05;;;;;;;13.25;100.00;99376.09;2041346;29;20194;-71
2022/05/15 04:46:40;;;;;;;40.95;34.03;;;;;;;13.29;100.00;99376.25;2034259;29;20227;-72
2022/05/15 04:47:46;;;;;;;38.28;33.92;;;;;;;13.32;100.00;99370.31;2041025;29;20199;-72
2022/05/15 04:48:48;;;;;;;39.92;34.03;;;;;;;13.40;100.00;99376.81;2040484;29;20179;-71